createdAt,value
2017-11-01T00:03:00.747Z,100768.18
2017-11-01T00:06:02.294Z,100779.31
2017-11-01T00:09:03.799Z,100761.20
2017-11-01T00:12:06.095Z,100768.45
2017-11-01T00:15:07.610Z,100765.67
2017-11-01T00:18:09.218Z,100760.89
2017-11-01T00:21:10.719Z,100773.98
2017-11-01T00:24:12.355Z,100772.31
2017-11-01T00:27:14.688Z,100767.06
2017-11-01T00:30:16.236Z,100766.11
2017-11-01T00:33:17.809Z,100764.19
2017-11-01T00:36:19.360Z,100765.70
2017-11-01T00:39:21.004Z,100757.66
2017-11-01T00:42:22.617Z,100771.91
2017-11-01T00:45:24.217Z,100767.42
2017-11-01T00:48:26.539Z,100755.47
2017-11-01T00:51:28.121Z,100761.39
2017-11-01T00:54:30.449Z,100756.78
2017-11-01T00:57:32.070Z,100762.73
2017-11-01T01:00:34.364Z,100763.51
2017-11-01T01:03:35.974Z,100758.48
2017-11-01T01:06:37.606Z,100753.70
2017-11-01T01:09:39.126Z,100753.38
2017-11-01T01:12:40.692Z,100749.41
2017-11-01T01:15:42.310Z,100766.71
2017-11-01T01:18:44.601Z,100748.70
2017-11-01T01:21:46.202Z,100755.45
2017-11-01T01:24:47.772Z,100739.34
2017-11-01T01:27:49.355Z,100753.41
2017-11-01T01:30:51.717Z,100752.66
2017-11-01T01:33:54.042Z,100747.88
2017-11-01T01:36:55.618Z,100750.52
2017-11-01T01:39:57.238Z,100750.02
2017-11-01T01:42:58.827Z,100756.77
2017-11-01T01:46:00.451Z,100752.04
2017-11-01T01:49:02.059Z,100751.49
2017-11-01T01:52:03.619Z,100748.47
2017-11-01T01:55:05.208Z,100751.55
2017-11-01T01:58:06.763Z,100752.05
2017-11-01T02:01:08.437Z,100743.69
2017-11-01T02:04:10.267Z,100741.13
2017-11-01T02:07:12.678Z,100738.19
2017-11-01T02:10:14.370Z,100732.95
2017-11-01T02:13:15.965Z,100733.02
2017-11-01T02:16:17.566Z,100728.59
2017-11-01T02:19:19.227Z,100734.27
2017-11-01T02:22:20.884Z,100732.72
2017-11-01T02:25:22.502Z,100734.20
2017-11-01T02:28:24.149Z,100725.63
2017-11-01T02:31:26.503Z,100735.08
2017-11-01T02:34:28.861Z,100732.94
2017-11-01T02:37:30.539Z,100736.19
2017-11-01T02:40:32.195Z,100727.20
2017-11-01T02:43:34.632Z,100732.20
2017-11-01T02:46:36.324Z,100734.70
2017-11-01T02:49:37.914Z,100733.65
2017-11-01T02:55:48.632Z,100729.53
2017-11-01T02:58:50.324Z,100715.19
2017-11-01T03:01:52.662Z,100721.28
2017-11-01T03:04:54.300Z,100719.47
2017-11-01T03:07:55.936Z,100721.05
2017-11-01T03:10:57.563Z,100714.48
2017-11-01T03:13:59.168Z,100716.25
2017-11-01T03:17:00.938Z,100715.30
2017-11-01T03:20:02.524Z,100718.44
2017-11-01T03:23:04.147Z,100722.79
2017-11-01T03:26:05.769Z,100706.42
2017-11-01T03:29:08.111Z,100718.50
2017-11-01T03:32:09.752Z,100712.71
2017-11-01T03:35:11.353Z,100712.63
2017-11-01T03:38:12.975Z,100715.45
2017-11-01T03:41:14.615Z,100709.82
2017-11-01T03:44:16.326Z,100718.73
2017-11-01T03:47:17.945Z,100714.70
2017-11-01T03:50:19.608Z,100719.44
2017-11-01T03:53:21.260Z,100714.64
2017-11-01T03:56:22.895Z,100715.33
2017-11-01T03:59:24.592Z,100711.08
2017-11-01T04:02:26.152Z,100711.09
2017-11-01T04:05:28.639Z,100707.69
2017-11-01T04:08:30.883Z,100712.98
2017-11-01T04:11:32.510Z,100705.21
2017-11-01T04:14:34.149Z,100705.30
2017-11-01T04:17:35.716Z,100711.17
2017-11-01T04:20:37.290Z,100704.70
2017-11-01T04:23:38.814Z,100704.41
2017-11-01T04:26:40.343Z,100687.46
2017-11-01T04:29:42.689Z,100693.91
2017-11-01T04:32:44.273Z,100695.59
2017-11-01T04:35:46.632Z,100695.81
2017-11-01T04:38:48.241Z,100689.48
2017-11-01T04:41:49.770Z,100704.91
2017-11-01T04:44:51.367Z,100709.47
2017-11-01T04:47:52.957Z,100701.91
2017-11-01T04:50:55.238Z,100692.80
2017-11-01T04:53:57.547Z,100699.10
2017-11-01T04:56:59.126Z,100688.48
2017-11-01T05:00:02.591Z,100700.39
2017-11-01T05:03:05.167Z,100697.87
2017-11-01T05:06:09.751Z,100699.27
2017-11-01T05:09:11.406Z,100702.94
2017-11-01T05:12:13.859Z,100699.91
2017-11-01T05:15:15.469Z,100701.58
2017-11-01T05:18:17.771Z,100707.13
2017-11-01T05:21:19.358Z,100676.91
2017-11-01T05:24:20.983Z,100701.09
2017-11-01T05:27:22.525Z,100700.39
2017-11-01T05:30:24.150Z,100698.99
2017-11-01T05:33:26.458Z,100704.31
2017-11-01T05:36:28.100Z,100708.97
2017-11-01T05:39:30.399Z,100697.06
2017-11-01T05:42:31.974Z,100705.52
2017-11-01T05:45:33.609Z,100704.49
2017-11-01T05:48:35.198Z,100705.61
2017-11-01T05:51:36.786Z,100710.80
2017-11-01T05:54:39.043Z,100720.56
2017-11-01T06:00:48.955Z,100697.87
2017-11-01T06:03:50.491Z,100716.05
2017-11-01T06:06:52.023Z,100709.80
2017-11-01T06:09:53.570Z,100721.44
2017-11-01T06:12:55.199Z,100720.25
2017-11-01T06:15:56.831Z,100724.98
2017-11-01T06:18:58.410Z,100722.56
2017-11-01T06:21:59.971Z,100721.02
2017-11-01T06:25:01.573Z,100715.71
2017-11-01T06:28:03.900Z,100725.17
2017-11-01T06:31:05.502Z,100728.53
2017-11-01T06:34:07.944Z,100729.91
2017-11-01T06:37:09.550Z,100730.66
2017-11-01T06:40:11.130Z,100728.80
2017-11-01T06:43:12.723Z,100738.67
2017-11-01T06:46:14.380Z,100752.98
2017-11-01T06:49:15.999Z,100753.25
2017-11-01T06:52:17.595Z,100761.36
2017-11-01T06:55:19.127Z,100769.66
2017-11-01T06:58:20.674Z,100759.81
2017-11-01T07:04:30.643Z,100758.28
2017-11-01T07:07:32.228Z,100749.87
2017-11-01T07:10:33.776Z,100758.17
2017-11-01T07:13:35.432Z,100760.77
2017-11-01T07:16:37.033Z,100749.23
2017-11-01T07:19:38.629Z,100763.72
2017-11-01T07:22:40.265Z,100766.63
2017-11-01T07:25:41.908Z,100770.81
2017-11-01T07:28:43.481Z,100764.44
2017-11-01T07:31:45.111Z,100767.67
2017-11-01T07:34:46.823Z,100776.61
2017-11-01T07:37:49.164Z,100789.31
2017-11-01T07:40:50.880Z,100789.87
2017-11-01T07:43:53.244Z,100793.48
2017-11-01T07:46:55.610Z,100787.51
2017-11-01T07:49:57.208Z,100790.92
2017-11-01T07:52:58.803Z,100788.89
2017-11-01T07:56:00.454Z,100791.06
2017-11-01T07:59:02.005Z,100794.55
2017-11-01T08:02:03.663Z,100803.98
2017-11-01T08:05:05.208Z,100806.63
2017-11-01T08:08:06.848Z,100809.17
2017-11-01T08:11:08.420Z,100812.19
2017-11-01T08:14:10.022Z,100800.42
2017-11-01T08:17:11.613Z,100815.00
2017-11-01T08:20:13.208Z,100816.73
2017-11-01T08:23:14.848Z,100818.45
2017-11-01T08:26:16.434Z,100821.47
2017-11-01T08:29:18.027Z,100813.23
2017-11-01T08:32:19.584Z,100811.67
2017-11-01T08:35:21.942Z,100804.81
2017-11-01T08:38:24.277Z,100800.42
2017-11-01T08:41:25.975Z,100796.45
2017-11-01T08:44:28.345Z,100798.26
2017-11-01T08:47:29.934Z,100803.84
2017-11-01T08:50:31.667Z,100798.77
2017-11-01T08:53:34.077Z,100795.64
2017-11-01T08:56:35.704Z,100793.41
2017-11-01T08:59:38.032Z,100782.77
2017-11-01T09:02:39.711Z,100791.19
2017-11-01T09:05:41.333Z,100782.99
2017-11-01T09:08:42.913Z,100794.41
2017-11-01T09:11:44.516Z,100788.23
2017-11-01T09:14:46.113Z,100779.00
2017-11-01T09:17:47.835Z,100777.48
2017-11-01T09:20:49.349Z,100755.87
2017-11-01T09:23:50.896Z,100777.48
2017-11-01T09:26:52.468Z,100772.99
2017-11-01T09:29:54.793Z,100771.06
2017-11-01T09:32:57.414Z,100773.27
2017-11-01T09:35:59.004Z,100761.72
2017-11-01T09:39:00.704Z,100763.84
2017-11-01T09:42:02.273Z,100769.16
2017-11-01T09:45:03.916Z,100750.02
2017-11-01T09:48:05.476Z,100755.33
2017-11-01T09:51:07.018Z,100742.47
2017-11-01T09:54:08.565Z,100754.05
2017-11-01T09:57:10.230Z,100768.86
2017-11-01T10:00:11.787Z,100769.72
2017-11-01T10:03:13.326Z,100775.48
2017-11-01T10:06:14.950Z,100770.69
2017-11-01T10:09:17.198Z,100768.44
2017-11-01T10:12:18.786Z,100760.89
2017-11-01T10:15:20.338Z,100764.05
2017-11-01T10:18:21.895Z,100759.83
2017-11-01T10:21:24.283Z,100765.77
2017-11-01T10:24:26.560Z,100761.92
2017-11-01T10:27:28.890Z,100754.80
2017-11-01T10:30:30.498Z,100746.31
2017-11-01T10:33:32.083Z,100754.16
2017-11-01T10:36:33.662Z,100747.98
2017-11-01T10:39:35.284Z,100754.82
2017-11-01T10:42:36.876Z,100746.56
2017-11-01T10:45:38.467Z,100744.80
2017-11-01T10:48:40.827Z,100742.09
2017-11-01T10:51:43.152Z,100739.66
2017-11-01T10:54:44.754Z,100731.91
2017-11-01T10:57:46.311Z,100736.65
2017-11-01T11:00:47.931Z,100731.89
2017-11-01T11:03:49.506Z,100722.84
2017-11-01T11:06:51.118Z,100714.86
2017-11-01T11:09:52.790Z,100721.80
2017-11-01T11:12:54.347Z,100706.09
2017-11-01T11:15:55.977Z,100719.83
2017-11-01T11:18:57.527Z,100720.54
2017-11-01T11:21:59.169Z,100730.02
2017-11-01T11:25:01.517Z,100728.34
2017-11-01T11:28:03.135Z,100728.13
2017-11-01T11:31:04.717Z,100705.63
2017-11-01T11:34:06.820Z,100715.83
2017-11-01T11:37:08.516Z,100705.66
2017-11-01T11:40:10.140Z,100700.80
2017-11-01T11:43:12.748Z,100690.73
2017-11-01T11:46:14.443Z,100681.55
2017-11-01T11:49:16.245Z,100688.68
2017-11-01T11:52:17.880Z,100687.12
2017-11-01T11:55:20.342Z,100678.61
2017-11-01T11:58:23.016Z,100672.58
2017-11-01T12:01:24.622Z,100666.77
2017-11-01T12:04:26.242Z,100662.86
2017-11-01T12:07:28.582Z,100663.57
2017-11-01T12:10:30.229Z,100663.69
2017-11-01T12:13:31.782Z,100659.94
2017-11-01T12:16:33.399Z,100661.59
2017-11-01T12:19:35.019Z,100653.36
2017-11-01T12:22:36.635Z,100650.89
2017-11-01T12:25:38.866Z,100648.57
2017-11-01T12:28:41.343Z,100640.61
2017-11-01T12:31:42.926Z,100634.95
2017-11-01T12:34:44.597Z,100638.91
2017-11-01T12:37:46.203Z,100636.16
2017-11-01T12:40:47.795Z,100628.84
2017-11-01T12:43:49.439Z,100634.11
2017-11-01T12:46:51.093Z,100608.31
2017-11-01T12:49:53.444Z,100604.64
2017-11-01T12:52:55.057Z,100598.09
2017-11-01T12:55:56.607Z,100602.98
2017-11-01T12:58:58.539Z,100601.04
2017-11-01T13:02:00.167Z,100593.91
2017-11-01T13:05:01.785Z,100591.36
2017-11-01T13:08:03.367Z,100581.21
2017-11-01T13:11:04.997Z,100581.23
2017-11-01T13:14:06.627Z,100583.65
2017-11-01T13:17:08.994Z,100588.35
2017-11-01T13:20:10.606Z,100577.80
2017-11-01T13:23:12.158Z,100580.14
2017-11-01T13:26:13.758Z,100580.39
2017-11-01T13:29:16.138Z,100585.53
2017-11-01T13:32:18.480Z,100582.24
2017-11-01T13:35:20.027Z,100570.87
2017-11-01T13:38:21.619Z,100582.06
2017-11-01T13:41:24.029Z,100584.72
2017-11-01T13:44:25.628Z,100559.45
2017-11-01T13:47:27.173Z,100556.61
2017-11-01T13:50:28.791Z,100573.02
2017-11-01T13:53:30.502Z,100568.10
2017-11-01T13:56:33.091Z,100564.34
2017-11-01T13:59:35.429Z,100563.84
2017-11-01T14:05:46.087Z,100556.44
2017-11-01T14:08:47.778Z,100556.20
2017-11-01T14:11:51.532Z,100548.44
2017-11-01T14:14:53.977Z,100544.77
2017-11-01T14:17:56.047Z,100523.42
2017-11-01T14:20:58.757Z,100521.27
2017-11-01T14:24:01.183Z,100527.14
2017-11-01T14:27:03.957Z,100522.83
2017-11-01T14:30:05.933Z,100523.02
2017-11-01T14:33:07.568Z,100521.08
2017-11-01T14:36:09.231Z,100524.86
2017-11-01T14:39:10.839Z,100511.02
2017-11-01T14:42:14.298Z,100499.20
2017-11-01T14:45:16.045Z,100515.24
2017-11-01T14:48:17.686Z,100522.76
2017-11-01T14:51:19.298Z,100518.08
2017-11-01T14:54:20.971Z,100524.30
2017-11-01T14:57:22.645Z,100517.75
2017-11-01T15:00:24.435Z,100519.87
2017-11-01T15:03:27.037Z,100532.91
2017-11-01T15:06:28.987Z,100516.28
2017-11-01T15:09:31.087Z,100508.77
2017-11-01T15:12:32.765Z,100504.59
2017-11-01T15:15:34.547Z,100494.88
2017-11-01T15:18:36.191Z,100525.43
2017-11-01T15:21:38.732Z,100508.29
2017-11-01T15:24:40.450Z,100511.66
2017-11-01T15:27:42.101Z,100513.09
2017-11-01T15:30:43.787Z,100520.67
2017-11-01T15:33:45.377Z,100516.44
2017-11-01T15:36:47.909Z,100511.63
2017-11-01T15:39:49.535Z,100513.38
2017-11-01T15:42:51.092Z,100510.72
2017-11-01T15:45:53.442Z,100500.25
2017-11-01T15:48:55.119Z,100506.88
2017-11-01T15:51:56.776Z,100502.50
2017-11-01T15:54:59.138Z,100490.20
2017-11-01T15:58:00.637Z,100488.13
2017-11-01T16:01:02.264Z,100466.55
2017-11-01T16:04:04.681Z,100485.84
2017-11-01T16:07:06.286Z,100480.90
2017-11-01T16:10:07.903Z,100501.94
2017-11-01T16:13:19.631Z,100495.67
2017-11-01T16:16:21.445Z,100499.06
2017-11-01T16:19:22.974Z,100494.80
2017-11-01T16:22:24.785Z,100493.58
2017-11-01T16:25:26.358Z,100488.88
2017-11-01T16:28:27.987Z,100469.70
2017-11-01T16:31:29.515Z,100463.95
2017-11-01T16:34:31.158Z,100471.93
2017-11-01T16:37:32.722Z,100470.52
2017-11-01T16:40:34.380Z,100458.64
2017-11-01T16:43:36.086Z,100456.81
2017-11-01T16:46:37.823Z,100465.76
2017-11-01T16:49:39.415Z,100456.78
2017-11-01T16:55:49.070Z,100447.51
2017-11-01T16:58:50.635Z,100433.16
2017-11-01T17:01:52.161Z,100443.48
2017-11-01T17:04:53.697Z,100448.59
2017-11-01T17:07:55.306Z,100437.55
2017-11-01T17:10:56.829Z,100443.25
2017-11-01T17:13:58.393Z,100435.81
2017-11-01T17:16:59.921Z,100433.87
2017-11-01T17:20:01.474Z,100434.89
2017-11-01T17:23:03.051Z,100432.25
2017-11-01T17:26:04.626Z,100428.68
2017-11-01T17:29:06.177Z,100424.88
2017-11-01T17:32:08.243Z,100431.28
2017-11-01T17:35:09.769Z,100420.00
2017-11-01T17:38:11.456Z,100428.66
2017-11-01T17:41:13.140Z,100434.55
2017-11-01T17:44:14.803Z,100438.72
2017-11-01T17:47:16.473Z,100422.75
2017-11-01T17:50:18.843Z,100431.48
2017-11-01T17:53:21.000Z,100431.80
2017-11-01T17:56:22.550Z,100422.63
2017-11-01T17:59:24.129Z,100421.86
2017-11-01T18:02:26.515Z,100420.16
2017-11-01T18:05:28.355Z,100414.32
2017-11-01T18:08:29.973Z,100403.05
2017-11-01T18:11:31.553Z,100410.94
2017-11-01T18:14:33.371Z,100404.47
2017-11-01T18:17:38.974Z,100401.25
2017-11-01T18:20:40.494Z,100397.39
2017-11-01T18:23:42.910Z,100399.91
2017-11-01T18:26:45.819Z,100384.78
2017-11-01T18:29:48.236Z,100391.55
2017-11-01T18:32:50.507Z,100397.59
2017-11-01T18:35:53.123Z,100386.20
2017-11-01T18:38:54.859Z,100387.57
2017-11-01T18:41:56.426Z,100377.82
2017-11-01T18:44:58.437Z,100389.51
2017-11-01T18:48:01.543Z,100374.89
2017-11-01T18:51:05.347Z,100373.62
2017-11-01T18:54:09.319Z,100377.85
2017-11-01T18:57:11.069Z,100371.83
2017-11-01T19:00:13.634Z,100365.82
2017-11-01T19:03:15.309Z,100364.89
2017-11-01T19:06:16.883Z,100357.52
2017-11-01T19:09:18.586Z,100354.48
2017-11-01T19:12:21.018Z,100357.29
2017-11-01T19:15:24.209Z,100360.26
2017-11-01T19:18:26.981Z,100350.39
2017-11-01T19:21:29.998Z,100353.05
2017-11-01T19:24:31.699Z,100345.60
2017-11-01T19:27:33.739Z,100343.95
2017-11-01T19:30:35.796Z,100349.44
2017-11-01T19:33:37.480Z,100345.15
2017-11-01T19:36:41.318Z,100345.72
2017-11-01T19:39:44.105Z,100349.12
2017-11-01T19:42:46.742Z,100339.41
2017-11-01T19:45:48.330Z,100346.02
2017-11-01T19:48:51.273Z,100340.15
2017-11-01T19:51:53.851Z,100347.83
2017-11-01T19:54:56.918Z,100344.03
2017-11-01T19:57:58.466Z,100342.36
2017-11-01T20:01:00.134Z,100339.97
2017-11-01T20:04:03.159Z,100334.60
2017-11-01T20:07:06.792Z,100333.02
2017-11-01T20:10:10.891Z,100328.27
2017-11-01T20:13:13.692Z,100314.38
2017-11-01T20:16:15.499Z,100314.64
2017-11-01T20:19:18.899Z,100310.75
2017-11-01T20:22:21.974Z,100298.86
2017-11-01T20:25:24.082Z,100308.53
2017-11-01T20:28:26.062Z,100285.31
2017-11-01T20:31:28.221Z,100285.09
2017-11-01T20:34:29.876Z,100274.41
2017-11-01T20:37:31.710Z,100295.75
2017-11-01T20:40:33.478Z,100287.25
2017-11-01T20:43:36.120Z,100279.00
2017-11-01T20:46:38.710Z,100276.17
2017-11-01T20:49:40.303Z,100279.67
2017-11-01T20:52:41.854Z,100274.06
2017-11-01T20:55:43.461Z,100264.13
2017-11-01T20:58:46.888Z,100262.06
2017-11-01T21:01:48.428Z,100252.16
2017-11-01T21:04:50.902Z,100247.34
2017-11-01T21:07:52.466Z,100256.83
2017-11-01T21:10:54.956Z,100251.64
2017-11-01T21:13:56.707Z,100237.67
2017-11-01T21:16:58.421Z,100231.56
2017-11-01T21:20:00.086Z,100228.26
2017-11-01T21:23:01.620Z,100219.64
2017-11-01T21:26:03.250Z,100210.02
2017-11-01T21:29:04.915Z,100208.75
2017-11-01T21:32:06.543Z,100185.80
2017-11-01T21:35:08.005Z,100194.89
2017-11-01T21:38:10.311Z,100183.95
2017-11-01T21:41:11.843Z,100191.83
2017-11-01T21:44:13.356Z,100182.50
2017-11-01T21:47:14.984Z,100187.83
2017-11-01T21:50:16.486Z,100173.47
2017-11-01T21:53:17.936Z,100172.89
2017-11-01T21:56:20.240Z,100171.00
2017-11-01T21:59:21.766Z,100177.53
2017-11-01T22:02:24.031Z,100166.67
2017-11-01T22:05:25.445Z,100166.01
2017-11-01T22:08:26.929Z,100165.56
2017-11-01T22:11:28.502Z,100150.92
2017-11-01T22:14:30.782Z,100155.09
2017-11-01T22:17:33.164Z,100147.38
2017-11-01T22:20:34.682Z,100145.53
2017-11-01T22:23:36.181Z,100142.36
2017-11-01T22:26:37.697Z,100150.20
2017-11-01T22:29:39.204Z,100155.75
2017-11-01T22:32:40.683Z,100143.16
2017-11-01T22:35:42.200Z,100150.49
2017-11-01T22:38:43.644Z,100137.86
2017-11-01T22:41:45.109Z,100139.15
2017-11-01T22:44:46.699Z,100143.66
2017-11-01T22:47:48.268Z,100139.91
2017-11-01T22:50:49.756Z,100141.59
2017-11-01T22:53:51.318Z,100140.57
2017-11-01T22:56:52.924Z,100126.31
2017-11-01T22:59:54.398Z,100138.87
2017-11-01T23:02:56.577Z,100124.52
2017-11-01T23:05:58.847Z,100129.90
2017-11-01T23:09:00.409Z,100111.64
2017-11-01T23:12:01.916Z,100112.81
2017-11-01T23:15:03.440Z,100094.39
2017-11-01T23:18:04.958Z,100097.06
2017-11-01T23:21:06.498Z,100090.11
2017-11-01T23:24:08.042Z,100084.92
2017-11-01T23:27:09.541Z,100086.25
2017-11-01T23:30:10.966Z,100078.33
2017-11-01T23:33:13.213Z,100070.86
2017-11-01T23:36:14.739Z,100065.62
2017-11-01T23:39:16.237Z,100065.86
2017-11-01T23:42:17.703Z,100066.28
2017-11-01T23:45:20.118Z,100053.27
2017-11-01T23:48:21.633Z,100044.17
2017-11-01T23:51:23.836Z,100040.55
2017-11-01T23:54:25.322Z,100037.44
2017-11-01T23:57:26.797Z,100036.13
